N70VB PAII-PAKN
Flight info
| Callsign | N70VB |
|---|---|
| Flight time | 0h 22m |
| Altitude | 7000 |
| Route | JUTAN CICAR |
| Aircraft | AEST/L-SDFGRY/S |
Departure
| Time | 2026-04-22 23:52 |
|---|---|
| Airport | Egegik Airport (PAII) |
Arrival
| Time | 2026-04-23 00:14 |
|---|---|
| Airport | King Salmon Airport (PAKN) |
| Time | Latitude | Longitude | Altitude | Speed | Heading |
|---|---|---|---|---|---|
| 2026-04-22 23:38 | 58.18874 | -157.37748 | 85 ft | 0 kts | 17° |
| 2026-04-22 23:47 | 58.18878 | -157.37744 | 85 ft | 3 kts | 33° |
| 2026-04-22 23:47 | 58.18838 | -157.37712 | 85 ft | 11 kts | 172° |
| 2026-04-22 23:47 | 58.18746 | -157.37683 | 87 ft | 15 kts | 191° |
| 2026-04-22 23:47 | 58.18733 | -157.37697 | 86 ft | 0 kts | 227° |
| 2026-04-22 23:50 | 58.18719 | -157.37723 | 89 ft | 8 kts | 225° |
| 2026-04-22 23:50 | 58.18684 | -157.37861 | 85 ft | 18 kts | 317° |
| 2026-04-22 23:50 | 58.18807 | -157.38046 | 88 ft | 28 kts | 319° |
| 2026-04-22 23:50 | 58.18969 | -157.38304 | 86 ft | 33 kts | 320° |
| 2026-04-22 23:51 | 58.19109 | -157.38509 | 87 ft | 17 kts | 320° |
| 2026-04-22 23:51 | 58.19078 | -157.38487 | 85 ft | 24 kts | 140° |
| 2026-04-22 23:51 | 58.18763 | -157.37980 | 91 ft | 83 kts | 140° |
| 2026-04-22 23:51 | 58.18264 | -157.37200 | 295 ft | 99 kts | 140° |
| 2026-04-22 23:52 | 58.17887 | -157.36058 | 628 ft | 114 kts | 98° |
| 2026-04-22 23:52 | 58.18207 | -157.34600 | 944 ft | 135 kts | 49° |
| 2026-04-22 23:52 | 58.19102 | -157.33921 | 1353 ft | 145 kts | 12° |
| 2026-04-22 23:52 | 58.20077 | -157.33428 | 1803 ft | 146 kts | 28° |
| 2026-04-22 23:53 | 58.20841 | -157.32231 | 2199 ft | 140 kts | 55° |
| 2026-04-22 23:53 | 58.21460 | -157.30848 | 2585 ft | 137 kts | 59° |
| 2026-04-22 23:53 | 58.22055 | -157.29442 | 2919 ft | 140 kts | 59° |
| 2026-04-22 23:53 | 58.22679 | -157.27986 | 3286 ft | 143 kts | 59° |
| 2026-04-22 23:54 | 58.23307 | -157.26512 | 3659 ft | 144 kts | 58° |
| 2026-04-22 23:54 | 58.23940 | -157.25019 | 4037 ft | 146 kts | 57° |
| 2026-04-22 23:54 | 58.24587 | -157.23530 | 4429 ft | 146 kts | 57° |
| 2026-04-22 23:54 | 58.25233 | -157.22022 | 4798 ft | 147 kts | 56° |
| 2026-04-22 23:55 | 58.25883 | -157.20512 | 5150 ft | 148 kts | 56° |
| 2026-04-22 23:55 | 58.26526 | -157.19013 | 5481 ft | 148 kts | 57° |
| 2026-04-22 23:55 | 58.27169 | -157.17504 | 5794 ft | 147 kts | 57° |
| 2026-04-22 23:55 | 58.27816 | -157.15995 | 6090 ft | 148 kts | 57° |
| 2026-04-22 23:56 | 58.28464 | -157.14488 | 6370 ft | 146 kts | 57° |
| 2026-04-22 23:56 | 58.29105 | -157.12991 | 6627 ft | 146 kts | 58° |
| 2026-04-22 23:56 | 58.29744 | -157.11486 | 6886 ft | 146 kts | 59° |
| 2026-04-22 23:56 | 58.30387 | -157.09982 | 7130 ft | 146 kts | 59° |
| 2026-04-22 23:57 | 58.31039 | -157.08490 | 7331 ft | 147 kts | 51° |
| 2026-04-22 23:57 | 58.31964 | -157.07764 | 7487 ft | 147 kts | 5° |
| 2026-04-22 23:57 | 58.32976 | -157.07656 | 7729 ft | 145 kts | 357° |
| 2026-04-22 23:57 | 58.33993 | -157.07626 | 7921 ft | 147 kts | 355° |
| 2026-04-22 23:58 | 58.35004 | -157.07604 | 8104 ft | 148 kts | 355° |
| 2026-04-22 23:58 | 58.36074 | -157.07574 | 8113 ft | 162 kts | 357° |
| 2026-04-22 23:58 | 58.37260 | -157.07521 | 8067 ft | 178 kts | 358° |
| 2026-04-22 23:58 | 58.38530 | -157.07469 | 8068 ft | 187 kts | 358° |
| 2026-04-22 23:59 | 58.39860 | -157.07415 | 8063 ft | 194 kts | 359° |
| 2026-04-22 23:59 | 58.41239 | -157.07351 | 8067 ft | 201 kts | 359° |
| 2026-04-22 23:59 | 58.42648 | -157.07290 | 8060 ft | 204 kts | 358° |
| 2026-04-22 23:59 | 58.44077 | -157.07230 | 8062 ft | 206 kts | 359° |
| 2026-04-23 00:00 | 58.47091 | -157.07104 | 7473 ft | 231 kts | 359° |
| 2026-04-23 00:00 | 58.48720 | -157.07026 | 7056 ft | 236 kts | 359° |
| 2026-04-23 00:00 | 58.50373 | -157.06959 | 6653 ft | 238 kts | 359° |
| 2026-04-23 00:01 | 58.52012 | -157.06900 | 6258 ft | 237 kts | 0° |
| 2026-04-23 00:01 | 58.53656 | -157.06832 | 5846 ft | 235 kts | 359° |
| 2026-04-23 00:01 | 58.55291 | -157.06759 | 5414 ft | 234 kts | 358° |
| 2026-04-23 00:01 | 58.56917 | -157.06688 | 4989 ft | 233 kts | 358° |
| 2026-04-23 00:02 | 58.58532 | -157.06606 | 4569 ft | 231 kts | 359° |
| 2026-04-23 00:02 | 58.60121 | -157.06548 | 4157 ft | 231 kts | 358° |
| 2026-04-23 00:02 | 58.61718 | -157.06493 | 3859 ft | 228 kts | 358° |
| 2026-04-23 00:02 | 58.63288 | -157.06427 | 3570 ft | 224 kts | 358° |
| 2026-04-23 00:03 | 58.64853 | -157.06359 | 3231 ft | 226 kts | 358° |
| 2026-04-23 00:03 | 58.66427 | -157.06305 | 2905 ft | 226 kts | 358° |
| 2026-04-23 00:03 | 58.67998 | -157.06245 | 2607 ft | 225 kts | 359° |
| 2026-04-23 00:03 | 58.69562 | -157.06184 | 2339 ft | 225 kts | 360° |
| 2026-04-23 00:04 | 58.71125 | -157.06130 | 2079 ft | 223 kts | 0° |
| 2026-04-23 00:04 | 58.72664 | -157.06066 | 1997 ft | 216 kts | 1° |
| 2026-04-23 00:04 | 58.74133 | -157.05985 | 2011 ft | 206 kts | 1° |
| 2026-04-23 00:04 | 58.75545 | -157.05922 | 2025 ft | 200 kts | 1° |
| 2026-04-23 00:05 | 58.76927 | -157.05858 | 2026 ft | 197 kts | 1° |
| 2026-04-23 00:05 | 58.78238 | -157.05321 | 2054 ft | 191 kts | 23° |
| 2026-04-23 00:05 | 58.79476 | -157.04349 | 2017 ft | 193 kts | 29° |
| 2026-04-23 00:05 | 58.80662 | -157.03190 | 2034 ft | 190 kts | 35° |
| 2026-04-23 00:06 | 58.81652 | -157.01590 | 2023 ft | 187 kts | 65° |
| 2026-04-23 00:06 | 58.82030 | -156.99327 | 2022 ft | 173 kts | 99° |
| 2026-04-23 00:06 | 58.81736 | -156.97168 | 1854 ft | 163 kts | 125° |
| 2026-04-23 00:06 | 58.81321 | -156.95116 | 1623 ft | 163 kts | 115° |
| 2026-04-23 00:07 | 58.80918 | -156.93162 | 1725 ft | 153 kts | 139° |
| 2026-04-23 00:07 | 58.80210 | -156.91757 | 1745 ft | 142 kts | 143° |
| 2026-04-23 00:07 | 58.79532 | -156.90395 | 1738 ft | 140 kts | 142° |
| 2026-04-23 00:07 | 58.78875 | -156.89030 | 1741 ft | 138 kts | 141° |
| 2026-04-23 00:08 | 58.78243 | -156.87673 | 1749 ft | 130 kts | 141° |
| 2026-04-23 00:08 | 58.77708 | -156.86495 | 1733 ft | 103 kts | 142° |
| 2026-04-23 00:08 | 58.77259 | -156.85515 | 1744 ft | 99 kts | 143° |
| 2026-04-23 00:08 | 58.76771 | -156.84490 | 1773 ft | 110 kts | 142° |
| 2026-04-23 00:09 | 58.76229 | -156.83335 | 1753 ft | 121 kts | 142° |
| 2026-04-23 00:09 | 58.75646 | -156.82082 | 1744 ft | 128 kts | 141° |
| 2026-04-23 00:09 | 58.75096 | -156.80886 | 1720 ft | 114 kts | 142° |
| 2026-04-23 00:09 | 58.74664 | -156.79911 | 1719 ft | 81 kts | 144° |
| 2026-04-23 00:10 | 58.74305 | -156.79134 | 1717 ft | 75 kts | 146° |
| 2026-04-23 00:10 | 58.73973 | -156.78425 | 1727 ft | 65 kts | 147° |
| 2026-04-23 00:10 | 58.73692 | -156.77820 | 1712 ft | 57 kts | 148° |
| 2026-04-23 00:10 | 58.73407 | -156.77238 | 1629 ft | 64 kts | 147° |
| 2026-04-23 00:11 | 58.73078 | -156.76570 | 1522 ft | 72 kts | 143° |
| 2026-04-23 00:11 | 58.72739 | -156.75840 | 1435 ft | 77 kts | 143° |
| 2026-04-23 00:11 | 58.72372 | -156.75044 | 1334 ft | 80 kts | 142° |
| 2026-04-23 00:11 | 58.71988 | -156.74204 | 1200 ft | 86 kts | 142° |
| 2026-04-23 00:12 | 58.71591 | -156.73349 | 1081 ft | 86 kts | 142° |
| 2026-04-23 00:12 | 58.71188 | -156.72489 | 969 ft | 86 kts | 140° |
| 2026-04-23 00:12 | 58.70783 | -156.71627 | 820 ft | 86 kts | 137° |
| 2026-04-23 00:12 | 58.70396 | -156.70787 | 684 ft | 84 kts | 138° |
| 2026-04-23 00:13 | 58.70021 | -156.69974 | 619 ft | 79 kts | 137° |
| 2026-04-23 00:13 | 58.69652 | -156.69171 | 484 ft | 78 kts | 138° |
| 2026-04-23 00:13 | 58.69278 | -156.68370 | 351 ft | 88 kts | 138° |
| 2026-04-23 00:13 | 58.68887 | -156.67519 | 266 ft | 84 kts | 134° |
| 2026-04-23 00:14 | 58.68509 | -156.66694 | 157 ft | 83 kts | 135° |
| 2026-04-23 00:14 | 58.68151 | -156.65949 | 74 ft | 65 kts | 135° |
| 2026-04-23 00:14 | 58.67887 | -156.65382 | 63 ft | 47 kts | 138° |
| 2026-04-23 00:14 | 58.67809 | -156.65232 | 68 ft | 4 kts | 103° |
| 2026-04-23 00:15 | 58.67891 | -156.65411 | 65 ft | 37 kts | 308° |
| 2026-04-23 00:15 | 58.68039 | -156.65714 | 65 ft | 28 kts | 306° |
| 2026-04-23 00:15 | 58.68188 | -156.66039 | 62 ft | 37 kts | 311° |
| 2026-04-23 00:15 | 58.68327 | -156.66301 | 57 ft | 18 kts | 0° |
| 2026-04-23 00:16 | 58.68438 | -156.66196 | 61 ft | 20 kts | 43° |
| 2026-04-23 00:16 | 58.68548 | -156.66011 | 66 ft | 11 kts | 8° |
| 2026-04-23 00:16 | 58.68596 | -156.66139 | 64 ft | 10 kts | 240° |
| 2026-04-23 00:16 | 58.68567 | -156.66164 | 63 ft | 0 kts | 86° |